Terminal Aerodrome Forecast
Issued by NWS Mt. Holly, NJ

Current Version | Previous Version | Text Only | Print | Product List | Glossary On
Versions: 1 2 3 4 5 6 7 8 9 10 11 12 13 14 15 16 17 18 19 20 21 22 23 24 25 26 27
000
FTUS41 KPHI 231433 AAB
TAFPHL
TAF AMD
KPHL 231433Z 2315/2418 23011G19KT P6SM SCT025 OVC050
      TEMPO 2321/2401 3SM TSRA BKN025CB
     FM240100 24012KT P6SM BKN040 OVC120
     FM240900 24007KT 4SM SHRA OVC040
     FM241200 24008KT 2SM +SHRA OVC010
     FM241500 30012KT P6SM SCT025 BKN120=

USA.gov is the U.S. government's official web portal to all federal, state and local government web resources and services.